• Join FlightAware (Why Join?)
  • Login
  • US Flag 
05:07PM EST


 

Airport Tracker/Info


-or-


 

Live Flight TrackerFlight Track Log ✈ ASQ4577 ✈ 15-May-2013 ✈ KIAH - KDFW

Flight Track Log - Related Links

Times and Time Zones

All times are in EDT time to prevent confusion due to time zone crossing. See the ASQ4577 flight status page for this flight to view local times or setup timezone preferences in your user account.

Time Position Orientation Groundspeed Altitude Reporting Facility
EDT Latitude Longitude Course Direction KTS MPH feet Rate Location/Type
02:39PM 29.9767 -95.3008 69° East 177 204 800  Level Houston Center
02:40PM 29.9817 -95.2856 69° East 158 182 1,500 1,620 Climbing Houston Center
02:41PM 30.0314 -95.2797 North 250 288 2,700 1,320 Climbing Houston Center
02:42PM 30.1069 -95.2875 355° North 267 307 4,000 1,380 Climbing Houston Center
02:43PM 30.1861 -95.2942 356° North 279 321 5,600 1,920 Climbing Houston Center
02:44PM 30.2678 -95.2986 357° North 289 333 8,100 2,340 Climbing Houston Center
02:45PM 30.3519 -95.3028 358° North 299 344 10,500 1,740 Climbing Houston Center
02:46PM 30.4586 -95.3106 356° North 311 358 11,800 1,380 Climbing Houston Center
02:47PM 30.5614 -95.3058 North 359 413 13,400 1,740 Climbing Houston Center
02:48PM 30.6628 -95.3008 North 366 421 15,400 1,860 Climbing Houston Center
02:49PM 30.7631 -95.2936 North 361 415 17,300 1,800 Climbing Houston Center
02:50PM 30.8603 -95.2869 North 352 405 19,200 1,740 Climbing Houston Center
02:51PM 30.9569 -95.2814 North 347 399 20,900 1,320 Climbing Houston Center
02:52PM 31.0586 -95.2733 North 359 413 22,000 480 Climbing Houston Center
02:53PM 31.1897 -95.2656 North 411 473 22,000  Level Houston Center
02:54PM 31.3217 -95.2558 North 444 511 22,000  Level Houston Center
02:55PM 31.4275 -95.3100 336° Northwest 425 489 22,000  Level Fort Worth Center
02:56PM 31.5083 -95.4006 316° Northwest 395 455 22,000  Level Fort Worth Center
02:57PM 31.5914 -95.4989 315° West 407 468 22,000  Level Fort Worth Center
02:58PM 31.6742 -95.5972 315° West 422 486 22,000  Level Fort Worth Center
02:59PM 31.7614 -95.7078 313° West 422 486 22,000  Level Fort Worth Center
03:00PM 31.8442 -95.8092 314° West 422 486 22,000 -60 Level Fort Worth Center
03:01PM 31.9161 -95.8933 315° West 397 457 21,900  Descending Fort Worth Center
03:02PM 32.0067 -95.9533 331° Northwest 377 434 22,000  Climbing Fort Worth Center
03:03PM 32.0867 -96.0306 321° Northwest 377 434 22,000  Level Fort Worth Center
03:04PM 32.1400 -96.1303 302° West 355 409 22,000 -420 Level Fort Worth Center
03:05PM 32.1931 -96.2253 303° West 348 400 21,200 -1,560 Descending Fort Worth Center
03:06PM 32.2564 -96.3031 314° West 343 395 18,900 -2,160 Descending Fort Worth Center
03:07PM 32.3303 -96.3906 315° West 338 389 16,500 -2,220 Descending Fort Worth Center
03:08PM 32.4019 -96.4758 315° West 338 389 14,100 -1,980 Descending Fort Worth Center
03:09PM 32.4589 -96.5442 315° West 328 377 12,600 -1,380 Descending Fort Worth Center
03:10PM 32.5239 -96.6200 315° West 311 358 11,400 -780 Descending Fort Worth Center
03:11PM 32.5786 -96.6836 316° Northwest 305 351 11,000 -240 Descending Fort Worth Center
03:12PM 32.6336 -96.7844 303° West 281 323 11,000  Level Fort Worth Center
03:13PM 32.6500 -96.8500 287° West 296 341 11,000  Level Dallas / Fort Worth TRACON
03:14PM 32.6833 -96.9333 295° West 282 325 11,000  Level Dallas / Fort Worth TRACON
03:15PM 32.7333 -97.0167 306° West 296 341 11,000  Level Dallas / Fort Worth TRACON
03:16PM 32.8000 -97.0667 328° Northwest 275 316 11,000 -900 Level Dallas / Fort Worth TRACON
03:17PM 32.8500 -97.1167 320° Northwest 258 297 9,300 -1,740 Descending Dallas / Fort Worth TRACON
03:18PM 32.9333 -97.1333 350° North 258 297 7,600 -1,920 Descending Dallas / Fort Worth TRACON
03:19PM 33.0000 -97.1500 348° North 256 295 5,500 -1,680 Descending Dallas / Fort Worth TRACON
03:20PM 33.0731 -97.1556 356° North 253 291 4,000 -840 Descending Fort Worth Center
03:22PM 33.1833 -97.0833 29° Northeast 218 251 2,900 -360 Descending Dallas / Fort Worth TRACON
03:23PM 33.1500 -97.0500 140° Southeast 208 239 3,000  Climbing Dallas / Fort Worth TRACON
03:24PM 33.1000 -97.0500 180° South 193 222 3,000  Level Dallas / Fort Worth TRACON